sensor_id;sensor_type;location;lat;lon;timestamp;P1;durP1;ratioP1;P2;durP2;ratioP2
51326;SDS011;37412;52.836;6.362;2023-03-31T00:02:31;26.77;;;5.47;;
51326;SDS011;37412;52.836;6.362;2023-03-31T00:05:17;29.60;;;5.72;;
51326;SDS011;37412;52.836;6.362;2023-03-31T00:08:05;27.38;;;5.93;;
51326;SDS011;37412;52.836;6.362;2023-03-31T00:10:53;30.10;;;6.25;;
51326;SDS011;37412;52.836;6.362;2023-03-31T00:13:44;29.13;;;5.77;;
51326;SDS011;37412;52.836;6.362;2023-03-31T00:16:30;28.85;;;5.82;;
51326;SDS011;37412;52.836;6.362;2023-03-31T00:19:17;28.10;;;5.50;;
51326;SDS011;37412;52.836;6.362;2023-03-31T00:22:05;27.70;;;6.00;;
51326;SDS011;37412;52.836;6.362;2023-03-31T00:24:52;28.77;;;5.65;;
51326;SDS011;37412;52.836;6.362;2023-03-31T00:27:40;31.55;;;5.07;;
51326;SDS011;37412;52.836;6.362;2023-03-31T00:30:29;26.52;;;5.60;;
51326;SDS011;37412;52.836;6.362;2023-03-31T00:33:15;26.48;;;5.95;;
51326;SDS011;37412;52.836;6.362;2023-03-31T00:36:01;29.15;;;5.63;;
51326;SDS011;37412;52.836;6.362;2023-03-31T00:38:50;25.63;;;5.80;;
51326;SDS011;37412;52.836;6.362;2023-03-31T00:41:36;27.60;;;5.60;;
51326;SDS011;37412;52.836;6.362;2023-03-31T00:44:23;26.52;;;5.35;;
51326;SDS011;37412;52.836;6.362;2023-03-31T00:47:11;28.57;;;5.67;;
51326;SDS011;37412;52.836;6.362;2023-03-31T00:50:02;26.30;;;5.97;;
51326;SDS011;37412;52.836;6.362;2023-03-31T00:52:50;25.20;;;5.43;;
51326;SDS011;37412;52.836;6.362;2023-03-31T00:55:45;26.67;;;5.78;;
51326;SDS011;37412;52.836;6.362;2023-03-31T00:58:36;31.40;;;6.22;;
51326;SDS011;37412;52.836;6.362;2023-03-31T01:01:27;25.45;;;5.72;;
51326;SDS011;37412;52.836;6.362;2023-03-31T01:04:14;24.65;;;5.13;;
51326;SDS011;37412;52.836;6.362;2023-03-31T01:07:10;24.63;;;5.38;;
51326;SDS011;37412;52.836;6.362;2023-03-31T01:10:22;28.85;;;5.57;;
51326;SDS011;37412;52.836;6.362;2023-03-31T01:13:11;30.23;;;5.68;;
51326;SDS011;37412;52.836;6.362;2023-03-31T01:15:59;27.55;;;5.68;;
51326;SDS011;37412;52.836;6.362;2023-03-31T01:18:45;26.83;;;5.68;;
51326;SDS011;37412;52.836;6.362;2023-03-31T01:21:47;30.98;;;5.32;;
51326;SDS011;37412;52.836;6.362;2023-03-31T01:28:01;29.92;;;5.72;;
51326;SDS011;37412;52.836;6.362;2023-03-31T01:31:12;28.30;;;6.00;;
51326;SDS011;37412;52.836;6.362;2023-03-31T01:34:24;31.35;;;5.47;;
51326;SDS011;37412;52.836;6.362;2023-03-31T01:43:50;30.02;;;5.75;;
51326;SDS011;37412;52.836;6.362;2023-03-31T01:47:05;28.92;;;5.55;;
51326;SDS011;37412;52.836;6.362;2023-03-31T01:50:01;29.88;;;5.88;;
51326;SDS011;37412;52.836;6.362;2023-03-31T01:56:31;30.15;;;5.85;;
51326;SDS011;37412;52.836;6.362;2023-03-31T02:02:31;24.17;;;4.90;;
51326;SDS011;37412;52.836;6.362;2023-03-31T02:05:23;21.52;;;5.00;;
51326;SDS011;37412;52.836;6.362;2023-03-31T02:08:15;22.25;;;5.10;;
51326;SDS011;37412;52.836;6.362;2023-03-31T02:11:07;24.42;;;5.43;;
51326;SDS011;37412;52.836;6.362;2023-03-31T02:13:54;26.37;;;5.27;;
51326;SDS011;37412;52.836;6.362;2023-03-31T02:16:41;22.50;;;5.30;;
51326;SDS011;37412;52.836;6.362;2023-03-31T02:19:32;28.33;;;5.37;;
51326;SDS011;37412;52.836;6.362;2023-03-31T02:22:24;23.03;;;4.87;;
51326;SDS011;37412;52.836;6.362;2023-03-31T02:25:15;23.58;;;5.47;;
51326;SDS011;37412;52.836;6.362;2023-03-31T02:28:07;23.65;;;5.40;;
51326;SDS011;37412;52.836;6.362;2023-03-31T02:33:52;22.50;;;4.72;;
51326;SDS011;37412;52.836;6.362;2023-03-31T02:36:39;22.98;;;5.03;;
51326;SDS011;37412;52.836;6.362;2023-03-31T02:39:28;16.92;;;4.32;;
51326;SDS011;37412;52.836;6.362;2023-03-31T02:42:18;18.55;;;4.75;;
51326;SDS011;37412;52.836;6.362;2023-03-31T02:45:05;18.75;;;4.72;;
51326;SDS011;37412;52.836;6.362;2023-03-31T02:48:26;18.50;;;4.60;;
51326;SDS011;37412;52.836;6.362;2023-03-31T02:57:42;16.85;;;4.65;;
51326;SDS011;37412;52.836;6.362;2023-03-31T03:01:07;16.55;;;4.68;;
51326;SDS011;37412;52.836;6.362;2023-03-31T03:17:27;18.48;;;5.50;;
51326;SDS011;37412;52.836;6.362;2023-03-31T03:20:20;14.55;;;5.50;;
51326;SDS011;37412;52.836;6.362;2023-03-31T03:23:07;18.85;;;6.00;;
51326;SDS011;37412;52.836;6.362;2023-03-31T03:25:53;16.15;;;5.68;;
51326;SDS011;37412;52.836;6.362;2023-03-31T03:28:39;21.02;;;6.60;;
51326;SDS011;37412;52.836;6.362;2023-03-31T03:31:25;18.65;;;6.53;;
51326;SDS011;37412;52.836;6.362;2023-03-31T03:34:11;19.02;;;6.57;;
51326;SDS011;37412;52.836;6.362;2023-03-31T03:36:57;18.58;;;7.03;;
51326;SDS011;37412;52.836;6.362;2023-03-31T03:39:43;16.85;;;7.15;;
51326;SDS011;37412;52.836;6.362;2023-03-31T03:42:29;21.23;;;8.05;;
51326;SDS011;37412;52.836;6.362;2023-03-31T03:45:15;20.05;;;8.20;;
51326;SDS011;37412;52.836;6.362;2023-03-31T03:48:01;21.83;;;8.33;;
51326;SDS011;37412;52.836;6.362;2023-03-31T03:50:47;20.27;;;8.27;;
51326;SDS011;37412;52.836;6.362;2023-03-31T03:53:33;21.95;;;8.38;;
51326;SDS011;37412;52.836;6.362;2023-03-31T03:56:19;19.88;;;8.32;;
51326;SDS011;37412;52.836;6.362;2023-03-31T03:59:06;20.33;;;8.03;;
51326;SDS011;37412;52.836;6.362;2023-03-31T04:01:52;20.85;;;8.48;;
51326;SDS011;37412;52.836;6.362;2023-03-31T04:04:38;23.33;;;8.35;;
51326;SDS011;37412;52.836;6.362;2023-03-31T04:07:24;18.83;;;7.53;;
51326;SDS011;37412;52.836;6.362;2023-03-31T04:10:10;17.73;;;7.50;;
51326;SDS011;37412;52.836;6.362;2023-03-31T04:12:56;19.05;;;7.82;;
51326;SDS011;37412;52.836;6.362;2023-03-31T04:15:42;18.70;;;7.95;;
51326;SDS011;37412;52.836;6.362;2023-03-31T04:18:28;18.17;;;7.77;;
51326;SDS011;37412;52.836;6.362;2023-03-31T04:21:14;17.52;;;7.32;;
51326;SDS011;37412;52.836;6.362;2023-03-31T04:24:07;19.20;;;7.45;;
51326;SDS011;37412;52.836;6.362;2023-03-31T04:26:53;20.93;;;7.30;;
51326;SDS011;37412;52.836;6.362;2023-03-31T04:29:38;22.45;;;7.75;;
51326;SDS011;37412;52.836;6.362;2023-03-31T04:32:24;18.30;;;7.22;;
51326;SDS011;37412;52.836;6.362;2023-03-31T04:35:10;18.40;;;7.10;;
51326;SDS011;37412;52.836;6.362;2023-03-31T04:37:59;17.48;;;7.00;;
51326;SDS011;37412;52.836;6.362;2023-03-31T04:40:47;16.38;;;6.75;;
51326;SDS011;37412;52.836;6.362;2023-03-31T04:43:34;16.05;;;6.45;;
51326;SDS011;37412;52.836;6.362;2023-03-31T04:46:20;20.03;;;7.03;;
51326;SDS011;37412;52.836;6.362;2023-03-31T04:49:06;18.83;;;6.85;;
51326;SDS011;37412;52.836;6.362;2023-03-31T04:51:55;20.70;;;7.00;;
51326;SDS011;37412;52.836;6.362;2023-03-31T04:54:41;15.38;;;6.35;;
51326;SDS011;37412;52.836;6.362;2023-03-31T04:57:27;18.30;;;7.00;;
51326;SDS011;37412;52.836;6.362;2023-03-31T05:00:13;16.38;;;6.50;;
51326;SDS011;37412;52.836;6.362;2023-03-31T05:02:59;15.98;;;6.50;;
51326;SDS011;37412;52.836;6.362;2023-03-31T05:05:46;15.85;;;6.55;;
51326;SDS011;37412;52.836;6.362;2023-03-31T05:08:32;13.47;;;6.40;;
51326;SDS011;37412;52.836;6.362;2023-03-31T05:11:18;17.10;;;6.57;;
51326;SDS011;37412;52.836;6.362;2023-03-31T05:14:04;15.02;;;6.40;;
51326;SDS011;37412;52.836;6.362;2023-03-31T05:16:50;17.23;;;6.95;;
51326;SDS011;37412;52.836;6.362;2023-03-31T05:19:36;17.83;;;6.50;;
51326;SDS011;37412;52.836;6.362;2023-03-31T05:22:22;17.85;;;6.70;;
51326;SDS011;37412;52.836;6.362;2023-03-31T05:25:09;19.77;;;7.28;;
51326;SDS011;37412;52.836;6.362;2023-03-31T05:27:59;19.60;;;7.43;;
51326;SDS011;37412;52.836;6.362;2023-03-31T05:30:48;13.70;;;6.28;;
51326;SDS011;37412;52.836;6.362;2023-03-31T05:33:37;16.90;;;6.78;;
51326;SDS011;37412;52.836;6.362;2023-03-31T05:36:25;15.82;;;7.32;;
51326;SDS011;37412;52.836;6.362;2023-03-31T05:39:13;15.20;;;6.43;;
51326;SDS011;37412;52.836;6.362;2023-03-31T05:41:59;15.32;;;6.32;;
51326;SDS011;37412;52.836;6.362;2023-03-31T05:44:45;14.97;;;6.30;;
51326;SDS011;37412;52.836;6.362;2023-03-31T05:47:31;14.55;;;6.28;;
51326;SDS011;37412;52.836;6.362;2023-03-31T05:50:17;19.80;;;6.90;;
51326;SDS011;37412;52.836;6.362;2023-03-31T05:53:03;14.95;;;6.07;;
51326;SDS011;37412;52.836;6.362;2023-03-31T05:55:49;12.27;;;5.70;;
51326;SDS011;37412;52.836;6.362;2023-03-31T05:58:40;14.40;;;5.95;;
51326;SDS011;37412;52.836;6.362;2023-03-31T06:01:26;15.07;;;5.95;;
51326;SDS011;37412;52.836;6.362;2023-03-31T06:04:12;12.60;;;5.32;;
51326;SDS011;37412;52.836;6.362;2023-03-31T06:06:58;15.63;;;5.88;;
51326;SDS011;37412;52.836;6.362;2023-03-31T06:09:44;13.38;;;5.43;;
51326;SDS011;37412;52.836;6.362;2023-03-31T06:12:31;13.18;;;5.60;;
51326;SDS011;37412;52.836;6.362;2023-03-31T06:15:16;12.23;;;5.60;;
51326;SDS011;37412;52.836;6.362;2023-03-31T06:18:02;11.73;;;5.88;;
51326;SDS011;37412;52.836;6.362;2023-03-31T06:20:50;11.45;;;5.78;;
51326;SDS011;37412;52.836;6.362;2023-03-31T06:23:36;14.05;;;6.43;;
51326;SDS011;37412;52.836;6.362;2023-03-31T06:26:22;13.15;;;6.38;;
51326;SDS011;37412;52.836;6.362;2023-03-31T06:29:08;11.00;;;6.30;;
51326;SDS011;37412;52.836;6.362;2023-03-31T06:31:54;10.88;;;5.93;;
51326;SDS011;37412;52.836;6.362;2023-03-31T06:34:40;14.25;;;6.65;;
51326;SDS011;37412;52.836;6.362;2023-03-31T06:37:26;14.07;;;6.85;;
51326;SDS011;37412;52.836;6.362;2023-03-31T06:40:12;13.45;;;6.60;;
51326;SDS011;37412;52.836;6.362;2023-03-31T06:42:58;12.80;;;6.10;;
51326;SDS011;37412;52.836;6.362;2023-03-31T06:45:44;13.38;;;6.03;;
51326;SDS011;37412;52.836;6.362;2023-03-31T06:48:30;14.30;;;5.72;;
51326;SDS011;37412;52.836;6.362;2023-03-31T06:51:16;16.13;;;6.80;;
51326;SDS011;37412;52.836;6.362;2023-03-31T06:54:02;13.02;;;5.88;;
51326;SDS011;37412;52.836;6.362;2023-03-31T06:56:48;14.30;;;6.13;;
51326;SDS011;37412;52.836;6.362;2023-03-31T06:59:34;14.43;;;6.35;;
51326;SDS011;37412;52.836;6.362;2023-03-31T07:02:20;13.68;;;5.47;;
51326;SDS011;37412;52.836;6.362;2023-03-31T07:05:06;12.23;;;5.72;;
51326;SDS011;37412;52.836;6.362;2023-03-31T07:07:52;11.70;;;4.97;;
51326;SDS011;37412;52.836;6.362;2023-03-31T07:10:42;12.40;;;5.30;;
51326;SDS011;37412;52.836;6.362;2023-03-31T07:13:30;12.88;;;5.13;;
51326;SDS011;37412;52.836;6.362;2023-03-31T07:16:16;12.65;;;4.70;;
51326;SDS011;37412;52.836;6.362;2023-03-31T07:19:02;11.90;;;4.93;;
51326;SDS011;37412;52.836;6.362;2023-03-31T07:21:50;12.40;;;4.57;;
51326;SDS011;37412;52.836;6.362;2023-03-31T07:24:37;13.32;;;4.70;;
51326;SDS011;37412;52.836;6.362;2023-03-31T07:27:23;11.60;;;4.50;;
51326;SDS011;37412;52.836;6.362;2023-03-31T07:30:10;14.68;;;4.63;;
51326;SDS011;37412;52.836;6.362;2023-03-31T07:32:59;11.00;;;4.20;;
51326;SDS011;37412;52.836;6.362;2023-03-31T07:35:46;14.30;;;4.75;;
51326;SDS011;37412;52.836;6.362;2023-03-31T07:38:31;14.93;;;4.57;;
51326;SDS011;37412;52.836;6.362;2023-03-31T07:41:18;13.38;;;4.72;;
51326;SDS011;37412;52.836;6.362;2023-03-31T07:44:05;12.13;;;4.05;;
51326;SDS011;37412;52.836;6.362;2023-03-31T07:46:51;11.95;;;4.13;;
51326;SDS011;37412;52.836;6.362;2023-03-31T07:49:37;12.13;;;4.30;;
51326;SDS011;37412;52.836;6.362;2023-03-31T07:52:23;15.10;;;5.20;;
51326;SDS011;37412;52.836;6.362;2023-03-31T07:55:09;15.43;;;5.07;;
51326;SDS011;37412;52.836;6.362;2023-03-31T07:57:56;14.77;;;4.77;;
51326;SDS011;37412;52.836;6.362;2023-03-31T08:00:42;16.73;;;5.18;;
51326;SDS011;37412;52.836;6.362;2023-03-31T08:03:28;16.25;;;5.53;;
51326;SDS011;37412;52.836;6.362;2023-03-31T08:06:17;13.15;;;5.10;;
51326;SDS011;37412;52.836;6.362;2023-03-31T08:09:05;15.57;;;5.32;;
51326;SDS011;37412;52.836;6.362;2023-03-31T08:11:53;16.53;;;5.40;;
51326;SDS011;37412;52.836;6.362;2023-03-31T08:14:39;12.85;;;4.50;;
51326;SDS011;37412;52.836;6.362;2023-03-31T08:17:25;14.23;;;4.72;;
51326;SDS011;37412;52.836;6.362;2023-03-31T08:20:11;11.50;;;4.20;;
51326;SDS011;37412;52.836;6.362;2023-03-31T08:22:57;12.95;;;4.43;;
51326;SDS011;37412;52.836;6.362;2023-03-31T08:25:44;15.40;;;4.95;;
51326;SDS011;37412;52.836;6.362;2023-03-31T08:28:30;17.55;;;5.10;;
51326;SDS011;37412;52.836;6.362;2023-03-31T08:31:16;14.13;;;4.87;;
51326;SDS011;37412;52.836;6.362;2023-03-31T08:34:04;12.52;;;4.40;;
51326;SDS011;37412;52.836;6.362;2023-03-31T08:36:51;16.10;;;5.10;;
51326;SDS011;37412;52.836;6.362;2023-03-31T08:39:37;13.63;;;4.40;;
51326;SDS011;37412;52.836;6.362;2023-03-31T08:45:31;12.00;;;4.38;;
51326;SDS011;37412;52.836;6.362;2023-03-31T08:48:31;10.98;;;3.97;;
51326;SDS011;37412;52.836;6.362;2023-03-31T08:51:37;13.52;;;4.30;;
51326;SDS011;37412;52.836;6.362;2023-03-31T08:54:33;13.07;;;4.10;;
51326;SDS011;37412;52.836;6.362;2023-03-31T08:57:52;10.55;;;3.83;;
51326;SDS011;37412;52.836;6.362;2023-03-31T09:00:56;9.73;;;4.10;;
51326;SDS011;37412;52.836;6.362;2023-03-31T09:04:10;9.07;;;3.50;;
51326;SDS011;37412;52.836;6.362;2023-03-31T09:07:19;10.45;;;3.63;;
51326;SDS011;37412;52.836;6.362;2023-03-31T09:16:22;8.40;;;3.47;;
51326;SDS011;37412;52.836;6.362;2023-03-31T09:22:37;11.20;;;3.20;;
51326;SDS011;37412;52.836;6.362;2023-03-31T09:25:30;10.23;;;3.10;;
51326;SDS011;37412;52.836;6.362;2023-03-31T09:28:30;9.07;;;2.92;;
51326;SDS011;37412;52.836;6.362;2023-03-31T09:31:23;9.05;;;2.78;;
51326;SDS011;37412;52.836;6.362;2023-03-31T09:34:14;8.80;;;2.97;;
51326;SDS011;37412;52.836;6.362;2023-03-31T09:37:04;7.77;;;2.80;;
51326;SDS011;37412;52.836;6.362;2023-03-31T09:39:50;7.35;;;2.80;;
51326;SDS011;37412;52.836;6.362;2023-03-31T09:42:36;7.97;;;3.05;;
51326;SDS011;37412;52.836;6.362;2023-03-31T09:45:23;9.98;;;2.90;;
51326;SDS011;37412;52.836;6.362;2023-03-31T09:48:13;7.95;;;2.65;;
51326;SDS011;37412;52.836;6.362;2023-03-31T09:51:06;8.93;;;3.00;;
51326;SDS011;37412;52.836;6.362;2023-03-31T09:54:00;10.32;;;2.80;;
51326;SDS011;37412;52.836;6.362;2023-03-31T09:57:12;7.75;;;2.63;;
51326;SDS011;37412;52.836;6.362;2023-03-31T10:00:01;7.50;;;2.72;;
51326;SDS011;37412;52.836;6.362;2023-03-31T10:03:00;6.65;;;2.60;;
51326;SDS011;37412;52.836;6.362;2023-03-31T10:05:51;6.63;;;2.60;;
51326;SDS011;37412;52.836;6.362;2023-03-31T10:08:46;7.22;;;2.70;;
51326;SDS011;37412;52.836;6.362;2023-03-31T10:11:49;8.82;;;2.80;;
51326;SDS011;37412;52.836;6.362;2023-03-31T10:14:43;8.25;;;2.88;;
51326;SDS011;37412;52.836;6.362;2023-03-31T10:17:33;8.32;;;2.85;;
51326;SDS011;37412;52.836;6.362;2023-03-31T10:20:32;6.70;;;2.70;;
51326;SDS011;37412;52.836;6.362;2023-03-31T10:26:11;7.70;;;2.50;;
51326;SDS011;37412;52.836;6.362;2023-03-31T10:29:01;9.10;;;3.08;;
51326;SDS011;37412;52.836;6.362;2023-03-31T10:31:54;6.15;;;2.50;;
51326;SDS011;37412;52.836;6.362;2023-03-31T10:34:40;9.70;;;2.90;;
51326;SDS011;37412;52.836;6.362;2023-03-31T10:37:27;7.75;;;2.83;;
51326;SDS011;37412;52.836;6.362;2023-03-31T10:40:15;8.63;;;2.67;;
51326;SDS011;37412;52.836;6.362;2023-03-31T10:43:14;7.95;;;2.78;;
51326;SDS011;37412;52.836;6.362;2023-03-31T10:46:02;9.20;;;2.70;;
51326;SDS011;37412;52.836;6.362;2023-03-31T10:48:49;8.50;;;2.78;;
51326;SDS011;37412;52.836;6.362;2023-03-31T10:51:35;7.93;;;2.50;;
51326;SDS011;37412;52.836;6.362;2023-03-31T10:54:21;7.70;;;2.53;;
51326;SDS011;37412;52.836;6.362;2023-03-31T10:57:08;10.35;;;2.83;;
51326;SDS011;37412;52.836;6.362;2023-03-31T11:00:09;10.10;;;2.80;;
51326;SDS011;37412;52.836;6.362;2023-03-31T11:03:20;10.82;;;3.50;;
51326;SDS011;37412;52.836;6.362;2023-03-31T11:12:51;11.98;;;3.47;;
51326;SDS011;37412;52.836;6.362;2023-03-31T11:15:49;8.30;;;2.90;;
51326;SDS011;37412;52.836;6.362;2023-03-31T11:19:00;7.95;;;3.00;;
51326;SDS011;37412;52.836;6.362;2023-03-31T11:21:51;10.30;;;3.50;;
51326;SDS011;37412;52.836;6.362;2023-03-31T11:30:40;9.55;;;3.50;;
51326;SDS011;37412;52.836;6.362;2023-03-31T11:33:34;11.30;;;3.50;;
51326;SDS011;37412;52.836;6.362;2023-03-31T11:36:44;10.20;;;3.55;;
51326;SDS011;37412;52.836;6.362;2023-03-31T11:45:57;12.35;;;4.00;;
51326;SDS011;37412;52.836;6.362;2023-03-31T11:48:46;9.80;;;3.50;;
51326;SDS011;37412;52.836;6.362;2023-03-31T11:51:57;9.55;;;3.45;;
51326;SDS011;37412;52.836;6.362;2023-03-31T11:54:54;10.68;;;3.33;;
51326;SDS011;37412;52.836;6.362;2023-03-31T11:57:50;8.93;;;3.60;;
51326;SDS011;37412;52.836;6.362;2023-03-31T12:00:50;12.43;;;4.03;;
51326;SDS011;37412;52.836;6.362;2023-03-31T12:04:04;10.83;;;4.07;;
51326;SDS011;37412;52.836;6.362;2023-03-31T12:10:36;12.25;;;4.13;;
51326;SDS011;37412;52.836;6.362;2023-03-31T12:13:38;12.65;;;4.50;;
51326;SDS011;37412;52.836;6.362;2023-03-31T12:16:43;12.25;;;4.30;;
51326;SDS011;37412;52.836;6.362;2023-03-31T12:22:28;14.07;;;4.28;;
51326;SDS011;37412;52.836;6.362;2023-03-31T12:25:20;15.05;;;4.63;;
51326;SDS011;37412;52.836;6.362;2023-03-31T12:28:07;14.45;;;4.60;;
51326;SDS011;37412;52.836;6.362;2023-03-31T12:30:55;17.45;;;4.60;;
51326;SDS011;37412;52.836;6.362;2023-03-31T12:33:45;17.15;;;4.60;;
51326;SDS011;37412;52.836;6.362;2023-03-31T12:45:29;16.15;;;4.65;;
51326;SDS011;37412;52.836;6.362;2023-03-31T12:51:36;17.50;;;4.13;;
51326;SDS011;37412;52.836;6.362;2023-03-31T12:54:35;14.30;;;3.88;;
51326;SDS011;37412;52.836;6.362;2023-03-31T12:57:36;15.07;;;4.20;;
51326;SDS011;37412;52.836;6.362;2023-03-31T13:00:23;15.45;;;4.18;;
51326;SDS011;37412;52.836;6.362;2023-03-31T13:12:05;17.90;;;4.85;;
51326;SDS011;37412;52.836;6.362;2023-03-31T13:14:59;18.85;;;4.50;;
51326;SDS011;37412;52.836;6.362;2023-03-31T13:17:56;18.00;;;4.55;;
51326;SDS011;37412;52.836;6.362;2023-03-31T13:20:57;14.63;;;4.13;;
51326;SDS011;37412;52.836;6.362;2023-03-31T13:23:44;15.23;;;3.88;;
51326;SDS011;37412;52.836;6.362;2023-03-31T13:29:21;16.13;;;3.90;;
51326;SDS011;37412;52.836;6.362;2023-03-31T13:32:17;10.13;;;2.97;;
51326;SDS011;37412;52.836;6.362;2023-03-31T13:35:24;12.95;;;3.10;;
51326;SDS011;37412;52.836;6.362;2023-03-31T13:44:55;11.73;;;3.55;;
51326;SDS011;37412;52.836;6.362;2023-03-31T13:48:05;13.15;;;6.03;;
51326;SDS011;37412;52.836;6.362;2023-03-31T13:54:03;10.80;;;2.90;;
51326;SDS011;37412;52.836;6.362;2023-03-31T14:03:12;5.63;;;2.17;;
51326;SDS011;37412;52.836;6.362;2023-03-31T14:09:08;6.95;;;1.77;;
51326;SDS011;37412;52.836;6.362;2023-03-31T14:11:58;8.43;;;2.20;;
51326;SDS011;37412;52.836;6.362;2023-03-31T14:14:45;6.22;;;1.63;;
51326;SDS011;37412;52.836;6.362;2023-03-31T14:17:37;6.90;;;2.05;;
51326;SDS011;37412;52.836;6.362;2023-03-31T14:20:27;7.72;;;2.33;;
51326;SDS011;37412;52.836;6.362;2023-03-31T14:23:47;6.80;;;1.88;;
51326;SDS011;37412;52.836;6.362;2023-03-31T14:36:26;7.60;;;1.67;;
51326;SDS011;37412;52.836;6.362;2023-03-31T14:39:43;5.72;;;1.52;;
51326;SDS011;37412;52.836;6.362;2023-03-31T14:42:38;6.40;;;1.70;;
51326;SDS011;37412;52.836;6.362;2023-03-31T14:45:26;7.00;;;1.85;;
51326;SDS011;37412;52.836;6.362;2023-03-31T14:48:16;7.60;;;2.20;;
51326;SDS011;37412;52.836;6.362;2023-03-31T14:51:02;8.18;;;2.15;;
51326;SDS011;37412;52.836;6.362;2023-03-31T14:53:57;12.30;;;2.67;;
51326;SDS011;37412;52.836;6.362;2023-03-31T14:56:44;8.15;;;2.10;;
51326;SDS011;37412;52.836;6.362;2023-03-31T14:59:43;10.00;;;2.53;;
51326;SDS011;37412;52.836;6.362;2023-03-31T15:02:31;10.90;;;2.60;;
51326;SDS011;37412;52.836;6.362;2023-03-31T15:05:27;13.48;;;2.85;;
51326;SDS011;37412;52.836;6.362;2023-03-31T15:08:17;9.48;;;2.80;;
51326;SDS011;37412;52.836;6.362;2023-03-31T15:11:07;11.00;;;2.80;;
51326;SDS011;37412;52.836;6.362;2023-03-31T15:13:58;10.00;;;2.72;;
51326;SDS011;37412;52.836;6.362;2023-03-31T15:16:45;12.23;;;3.30;;
51326;SDS011;37412;52.836;6.362;2023-03-31T15:19:34;11.50;;;3.08;;
51326;SDS011;37412;52.836;6.362;2023-03-31T15:22:21;12.45;;;2.92;;
51326;SDS011;37412;52.836;6.362;2023-03-31T15:25:13;11.40;;;3.03;;
51326;SDS011;37412;52.836;6.362;2023-03-31T15:28:03;12.85;;;3.30;;
51326;SDS011;37412;52.836;6.362;2023-03-31T15:30:52;11.85;;;2.83;;
51326;SDS011;37412;52.836;6.362;2023-03-31T15:33:38;11.93;;;2.75;;
51326;SDS011;37412;52.836;6.362;2023-03-31T15:36:28;10.00;;;2.53;;
51326;SDS011;37412;52.836;6.362;2023-03-31T15:39:15;10.73;;;2.87;;
51326;SDS011;37412;52.836;6.362;2023-03-31T15:42:02;11.55;;;2.90;;
51326;SDS011;37412;52.836;6.362;2023-03-31T15:44:54;9.52;;;2.65;;
51326;SDS011;37412;52.836;6.362;2023-03-31T15:47:55;11.90;;;3.10;;
51326;SDS011;37412;52.836;6.362;2023-03-31T15:50:41;11.18;;;3.13;;
51326;SDS011;37412;52.836;6.362;2023-03-31T15:53:29;11.93;;;2.92;;
51326;SDS011;37412;52.836;6.362;2023-03-31T15:56:30;11.93;;;3.20;;
51326;SDS011;37412;52.836;6.362;2023-03-31T15:59:23;11.98;;;3.25;;
51326;SDS011;37412;52.836;6.362;2023-03-31T16:02:11;10.82;;;2.97;;
51326;SDS011;37412;52.836;6.362;2023-03-31T16:05:00;11.35;;;2.97;;
51326;SDS011;37412;52.836;6.362;2023-03-31T16:07:48;10.02;;;2.60;;
51326;SDS011;37412;52.836;6.362;2023-03-31T16:10:34;9.90;;;2.83;;
51326;SDS011;37412;52.836;6.362;2023-03-31T16:13:20;12.75;;;2.80;;
51326;SDS011;37412;52.836;6.362;2023-03-31T16:16:07;10.40;;;2.90;;
51326;SDS011;37412;52.836;6.362;2023-03-31T16:19:02;10.07;;;2.78;;
51326;SDS011;37412;52.836;6.362;2023-03-31T16:21:54;9.75;;;2.50;;
51326;SDS011;37412;52.836;6.362;2023-03-31T16:24:43;11.05;;;2.38;;
51326;SDS011;37412;52.836;6.362;2023-03-31T16:27:30;11.23;;;2.72;;
51326;SDS011;37412;52.836;6.362;2023-03-31T16:30:31;12.05;;;2.75;;
51326;SDS011;37412;52.836;6.362;2023-03-31T16:33:20;9.35;;;2.30;;
51326;SDS011;37412;52.836;6.362;2023-03-31T16:36:10;8.60;;;2.90;;
51326;SDS011;37412;52.836;6.362;2023-03-31T16:39:00;10.77;;;2.92;;
51326;SDS011;37412;52.836;6.362;2023-03-31T16:41:49;10.68;;;2.72;;
51326;SDS011;37412;52.836;6.362;2023-03-31T16:44:35;11.60;;;3.00;;
51326;SDS011;37412;52.836;6.362;2023-03-31T16:47:21;10.95;;;2.63;;
51326;SDS011;37412;52.836;6.362;2023-03-31T16:50:07;8.53;;;2.53;;
51326;SDS011;37412;52.836;6.362;2023-03-31T16:52:53;7.47;;;2.22;;
51326;SDS011;37412;52.836;6.362;2023-03-31T16:55:40;7.47;;;2.17;;
51326;SDS011;37412;52.836;6.362;2023-03-31T16:58:26;9.68;;;2.28;;
51326;SDS011;37412;52.836;6.362;2023-03-31T17:01:15;6.22;;;2.05;;
51326;SDS011;37412;52.836;6.362;2023-03-31T17:04:01;6.82;;;1.95;;
51326;SDS011;37412;52.836;6.362;2023-03-31T17:06:47;6.13;;;2.13;;
51326;SDS011;37412;52.836;6.362;2023-03-31T17:09:33;10.15;;;2.70;;
51326;SDS011;37412;52.836;6.362;2023-03-31T17:12:19;6.43;;;2.08;;
51326;SDS011;37412;52.836;6.362;2023-03-31T17:15:05;6.93;;;2.10;;
51326;SDS011;37412;52.836;6.362;2023-03-31T17:17:52;6.40;;;2.05;;
51326;SDS011;37412;52.836;6.362;2023-03-31T17:20:38;6.80;;;2.08;;
51326;SDS011;37412;52.836;6.362;2023-03-31T17:23:24;5.03;;;1.80;;
51326;SDS011;37412;52.836;6.362;2023-03-31T17:26:11;6.90;;;1.90;;
51326;SDS011;37412;52.836;6.362;2023-03-31T17:28:57;6.78;;;1.90;;
51326;SDS011;37412;52.836;6.362;2023-03-31T17:31:46;7.90;;;2.10;;
51326;SDS011;37412;52.836;6.362;2023-03-31T17:34:40;8.05;;;1.92;;
51326;SDS011;37412;52.836;6.362;2023-03-31T17:37:29;8.70;;;2.33;;
51326;SDS011;37412;52.836;6.362;2023-03-31T17:40:16;7.10;;;2.00;;
51326;SDS011;37412;52.836;6.362;2023-03-31T17:43:02;6.72;;;2.10;;
51326;SDS011;37412;52.836;6.362;2023-03-31T17:45:59;6.70;;;2.25;;
51326;SDS011;37412;52.836;6.362;2023-03-31T17:48:46;7.57;;;2.15;;
51326;SDS011;37412;52.836;6.362;2023-03-31T17:51:34;7.18;;;2.28;;
51326;SDS011;37412;52.836;6.362;2023-03-31T17:54:20;7.20;;;2.38;;
51326;SDS011;37412;52.836;6.362;2023-03-31T17:57:06;8.00;;;2.40;;
51326;SDS011;37412;52.836;6.362;2023-03-31T17:59:55;9.27;;;2.63;;
51326;SDS011;37412;52.836;6.362;2023-03-31T18:02:42;6.72;;;2.10;;
51326;SDS011;37412;52.836;6.362;2023-03-31T18:05:28;7.72;;;2.45;;
51326;SDS011;37412;52.836;6.362;2023-03-31T18:08:14;6.28;;;2.20;;
51326;SDS011;37412;52.836;6.362;2023-03-31T18:11:02;6.97;;;2.20;;
51326;SDS011;37412;52.836;6.362;2023-03-31T18:13:49;8.27;;;2.35;;
51326;SDS011;37412;52.836;6.362;2023-03-31T18:16:35;6.70;;;2.00;;
51326;SDS011;37412;52.836;6.362;2023-03-31T18:19:22;5.90;;;2.00;;
51326;SDS011;37412;52.836;6.362;2023-03-31T18:22:08;7.05;;;2.00;;
51326;SDS011;37412;52.836;6.362;2023-03-31T18:24:55;6.43;;;2.22;;
51326;SDS011;37412;52.836;6.362;2023-03-31T18:27:41;5.53;;;2.17;;
51326;SDS011;37412;52.836;6.362;2023-03-31T18:30:27;5.40;;;2.30;;
51326;SDS011;37412;52.836;6.362;2023-03-31T18:33:13;6.77;;;2.47;;
51326;SDS011;37412;52.836;6.362;2023-03-31T18:35:59;6.60;;;2.10;;
51326;SDS011;37412;52.836;6.362;2023-03-31T18:38:46;8.38;;;2.70;;
51326;SDS011;37412;52.836;6.362;2023-03-31T18:41:33;7.87;;;2.50;;
51326;SDS011;37412;52.836;6.362;2023-03-31T18:44:20;7.63;;;2.35;;
51326;SDS011;37412;52.836;6.362;2023-03-31T18:47:06;5.20;;;2.40;;
51326;SDS011;37412;52.836;6.362;2023-03-31T18:49:52;7.27;;;2.60;;
51326;SDS011;37412;52.836;6.362;2023-03-31T18:52:39;6.03;;;2.15;;
51326;SDS011;37412;52.836;6.362;2023-03-31T18:55:26;6.93;;;2.77;;
51326;SDS011;37412;52.836;6.362;2023-03-31T18:58:13;5.32;;;2.33;;
51326;SDS011;37412;52.836;6.362;2023-03-31T19:00:59;5.53;;;2.30;;
51326;SDS011;37412;52.836;6.362;2023-03-31T19:03:45;5.75;;;2.13;;
51326;SDS011;37412;52.836;6.362;2023-03-31T19:06:32;6.30;;;2.65;;
51326;SDS011;37412;52.836;6.362;2023-03-31T19:09:18;6.25;;;2.75;;